Time;durP1;ratioP1;P1;durP2;ratioP2;P2;SDS_P1;SDS_P2;PMS_P1;PMS_P2;Temp;Humidity;BMP_temperature;BMP_pressure;BME280_temperature;BME280_humidity;BME280_pressure;Samples;Min_cycle;Max_cycle;Signal;HPM_P1;HPM_P2
2022/06/10 00:01:51;;;;;;;6.37;2.00;;;;;;;11.76;100.00;96726.97;5030476;28;20037;-80
2022/06/10 00:04:17;;;;;;;5.27;2.30;;;;;;;11.71;100.00;96726.63;5021467;28;20046;-81
2022/06/10 00:06:44;;;;;;;5.97;1.70;;;;;;;11.70;100.00;96729.38;5009799;28;20091;-81
2022/06/10 00:09:09;;;;;;;6.83;2.20;;;;;;;11.66;100.00;96722.78;5019215;28;20030;-81
2022/06/10 00:11:35;;;;;;;4.33;1.90;;;;;;;11.68;100.00;96726.94;5015564;28;20072;-80
2022/06/10 00:14:01;;;;;;;4.77;1.90;;;;;;;11.56;100.00;96722.88;5024198;28;20064;-81
2022/06/10 00:16:26;;;;;;;5.63;1.87;;;;;;;11.47;100.00;96723.81;5046221;28;20033;-80
2022/06/10 00:18:52;;;;;;;5.50;2.00;;;;;;;11.52;100.00;96727.63;5027295;28;20137;-80
2022/06/10 00:21:20;;;;;;;3.90;2.13;;;;;;;11.52;100.00;96732.88;5010819;28;20034;-80
2022/06/10 00:23:46;;;;;;;6.23;2.47;;;;;;;11.55;100.00;96729.13;5029135;28;20018;-79
2022/06/10 00:26:13;;;;;;;7.73;2.97;;;;;;;11.54;100.00;96736.22;5029531;28;20053;-80
2022/06/10 00:28:40;;;;;;;6.17;2.50;;;;;;;11.52;100.00;96737.34;5026559;28;20502;-80
2022/06/10 00:31:06;;;;;;;3.93;2.00;;;;;;;11.44;100.00;96743.38;5022422;28;20034;-80
2022/06/10 00:33:34;;;;;;;5.80;2.63;;;;;;;11.48;100.00;96747.34;5012368;28;20030;-81
2022/06/10 00:36:01;;;;;;;4.37;2.30;;;;;;;11.46;100.00;96743.19;5037214;28;20237;-80
2022/06/10 00:38:27;;;;;;;7.80;2.80;;;;;;;11.41;100.00;96742.84;5031937;28;20101;-79
2022/06/10 00:40:55;;;;;;;7.40;2.73;;;;;;;11.20;100.00;96745.78;5014421;28;20033;-81
2022/06/10 00:43:24;;;;;;;7.67;2.63;;;;;;;11.30;100.00;96742.09;5014902;28;20045;-80
2022/06/10 00:45:56;;;;;;;6.40;2.47;;;;;;;11.30;100.00;96746.53;5020077;28;20394;-81
2022/06/10 00:48:37;;;;;;;5.83;2.60;;;;;;;11.19;100.00;96747.56;5012966;28;20034;-81
2022/06/10 00:51:41;;;;;;;6.40;2.43;;;;;;;11.17;100.00;96754.00;5014854;28;20038;-80
2022/06/10 00:54:21;;;;;;;5.88;2.97;;;;;;;11.08;100.00;96748.63;5016625;28;20072;-81
2022/06/10 00:57:01;;;;;;;5.07;2.40;;;;;;;11.07;100.00;96747.00;5011595;28;20041;-81
2022/06/10 00:59:30;;;;;;;5.30;2.63;;;;;;;11.04;100.00;96752.56;5008342;28;20140;-84
2022/06/10 01:02:07;;;;;;;8.03;2.43;;;;;;;11.08;100.00;96748.63;5003750;28;20038;-79
2022/06/10 01:04:32;;;;;;;6.17;2.40;;;;;;;11.05;100.00;96750.75;5034895;28;20618;-80
2022/06/10 01:06:58;;;;;;;8.77;2.20;;;;;;;11.10;100.00;96751.13;5021410;28;20151;-80
2022/06/10 01:09:25;;;;;;;4.47;2.07;;;;;;;11.06;100.00;96750.56;5006486;28;20041;-80
2022/06/10 01:12:02;;;;;;;5.90;2.70;;;;;;;11.02;100.00;96741.31;4989888;28;20033;-80
2022/06/10 01:14:46;;;;;;;5.10;2.90;;;;;;;10.95;100.00;96748.16;5015243;28;20164;-80
2022/06/10 01:17:39;;;;;;;9.87;3.03;;;;;;;11.00;100.00;96748.56;5011720;28;20045;-80
2022/06/10 01:20:18;;;;;;;5.77;2.20;;;;;;;11.00;100.00;96748.56;5005320;28;20040;-80
2022/06/10 01:22:56;;;;;;;7.90;2.50;;;;;;;10.99;100.00;96754.78;5009710;28;20030;-80
2022/06/10 01:25:33;;;;;;;6.07;2.37;;;;;;;10.98;100.00;96761.03;5009468;28;20049;-81
2022/06/10 01:28:07;;;;;;;5.60;3.20;;;;;;;10.92;100.00;96766.88;5010716;28;20026;-80
2022/06/10 01:30:59;;;;;;;7.47;2.20;;;;;;;10.85;100.00;96765.81;5003140;28;20097;-80
2022/06/10 01:33:43;;;;;;;6.87;3.40;;;;;;;10.87;100.00;96765.69;5016130;28;20033;-80
2022/06/10 01:36:18;;;;;;;5.90;2.43;;;;;;;10.93;100.00;96771.19;5006577;28;20026;-80
2022/06/10 01:39:05;;;;;;;5.93;2.53;;;;;;;10.92;100.00;96766.06;4994683;28;20076;-80
2022/06/10 01:41:52;;;;;;;6.60;2.60;;;;;;;10.86;100.00;96772.72;5014522;28;20096;-80
2022/06/10 01:44:36;;;;;;;5.60;2.10;;;;;;;10.75;100.00;96771.13;5002818;28;20035;-79
2022/06/10 01:47:05;;;;;;;4.93;2.33;;;;;;;10.68;100.00;96774.50;5011039;28;20060;-80
2022/06/10 01:49:37;;;;;;;6.23;2.40;;;;;;;10.68;100.00;96775.34;5008878;28;20088;-80
2022/06/10 01:52:09;;;;;;;7.33;2.43;;;;;;;10.66;100.00;96777.28;5007846;28;20776;-80
2022/06/10 01:54:56;;;;;;;6.43;2.80;;;;;;;10.67;100.00;96781.59;5000039;28;20038;-80
2022/06/10 01:57:27;;;;;;;5.67;2.13;;;;;;;10.63;100.00;96777.59;5012558;28;20044;-80
2022/06/10 01:59:59;;;;;;;5.53;2.53;;;;;;;10.60;100.00;96778.72;5016375;28;20044;-80
2022/06/10 02:02:31;;;;;;;5.57;2.83;;;;;;;10.61;100.00;96774.28;5004206;28;20455;-81
2022/06/10 02:05:12;;;;;;;4.90;2.37;;;;;;;10.62;100.00;96782.00;5001809;28;20038;-79
2022/06/10 02:07:47;;;;;;;7.17;2.97;;;;;;;10.58;100.00;96780.63;5018592;28;20386;-79
2022/06/10 02:10:19;;;;;;;4.53;2.30;;;;;;;10.58;100.00;96790.34;5017306;28;20033;-80
2022/06/10 02:12:51;;;;;;;4.30;2.50;;;;;;;10.60;100.00;96793.66;5019294;28;20060;-80
2022/06/10 02:15:29;;;;;;;7.23;2.40;;;;;;;10.55;100.00;96791.44;5014489;28;20070;-81
2022/06/10 02:18:06;;;;;;;4.20;2.17;;;;;;;10.59;100.00;96794.63;5004615;28;20049;-80
2022/06/10 02:20:36;;;;;;;5.97;2.87;;;;;;;10.47;100.00;96803.69;5026687;28;20438;-81
2022/06/10 02:23:05;;;;;;;5.43;2.10;;;;;;;10.37;100.00;96798.47;5027514;28;20033;-80
2022/06/10 02:25:37;;;;;;;6.23;3.03;;;;;;;10.37;100.00;96798.47;4998696;28;20038;-79
2022/06/10 02:28:09;;;;;;;6.37;2.97;;;;;;;10.34;100.00;96798.75;5012015;28;20088;-80
2022/06/10 02:30:59;;;;;;;3.67;2.63;;;;;;;10.28;100.00;96804.56;5012662;28;20095;-80
2022/06/10 02:33:25;;;;;;;6.30;2.33;;;;;;;10.29;100.00;96801.78;5012645;28;20054;-81
2022/06/10 02:36:09;;;;;;;5.83;2.33;;;;;;;10.31;100.00;96801.66;4995327;28;20037;-80
2022/06/10 02:39:08;;;;;;;6.37;2.40;;;;;;;10.28;100.00;96797.50;4992250;28;20056;-80
2022/06/10 02:41:48;;;;;;;6.27;2.60;;;;;;;10.32;100.00;96798.03;5021766;28;20060;-80
2022/06/10 02:44:30;;;;;;;5.03;2.97;;;;;;;10.31;100.00;96809.53;5013034;28;20037;-80
2022/06/10 02:47:31;;;;;;;5.33;2.50;;;;;;;10.31;100.00;96809.53;5014976;28;20034;-80
2022/06/10 02:49:57;;;;;;;5.70;2.60;;;;;;;10.33;100.00;96813.69;4989614;28;20038;-80
2022/06/10 02:52:29;;;;;;;4.40;2.37;;;;;;;10.31;100.00;96814.81;5019521;28;20034;-80
2022/06/10 02:54:55;;;;;;;8.27;2.67;;;;;;;10.27;100.00;96816.88;5009870;28;20034;-80
2022/06/10 03:01:11;;;;;;;4.33;2.27;;;;;;;10.30;100.00;96818.41;5034908;28;20046;-79
2022/06/10 03:03:05;;;;;;;6.20;2.50;;;;;;;10.22;100.00;96829.59;4975632;28;20054;-80
2022/06/10 03:05:47;;;;;;;4.93;2.90;;;;;;;10.23;100.00;96827.78;5012591;28;20105;-80
2022/06/10 03:08:26;;;;;;;7.43;2.90;;;;;;;9.98;100.00;96832.69;5013332;28;20041;-80
2022/06/10 03:11:08;;;;;;;6.60;3.03;;;;;;;10.02;100.00;96835.84;5020911;28;20037;-80
2022/06/10 03:14:07;;;;;;;6.87;2.90;;;;;;;10.00;100.00;96832.56;5007818;28;20026;-80
2022/06/10 03:17:01;;;;;;;5.43;2.73;;;;;;;9.94;100.00;96828.69;4972626;28;20054;-80
2022/06/10 03:19:48;;;;;;;7.27;2.73;;;;;;;9.91;100.00;96837.66;5014081;28;20037;-79
2022/06/10 03:22:32;;;;;;;4.97;2.83;;;;;;;9.89;100.00;96836.13;5034885;28;20060;-80
2022/06/10 03:25:07;;;;;;;7.33;3.23;;;;;;;9.92;100.00;96841.13;5015006;28;20057;-81
2022/06/10 03:27:43;;;;;;;5.70;2.50;;;;;;;9.99;100.00;96836.97;5012972;28;20069;-80
2022/06/10 03:30:14;;;;;;;6.53;2.77;;;;;;;10.04;100.00;96842.63;5022182;28;20037;-80
2022/06/10 03:32:46;;;;;;;6.47;2.97;;;;;;;10.05;100.00;96846.91;5029461;28;20187;-78
2022/06/10 03:35:18;;;;;;;10.77;3.00;;;;;;;10.01;100.00;96860.47;5024159;28;20121;-80
2022/06/10 03:37:44;;;;;;;5.97;2.87;;;;;;;10.01;100.00;96845.53;5005636;28;20034;-80
2022/06/10 03:40:22;;;;;;;6.57;2.90;;;;;;;9.94;100.00;96854.97;5013590;28;20415;-80
2022/06/10 03:42:52;;;;;;;5.13;2.60;;;;;;;10.04;100.00;96860.22;5010364;28;20038;-80
2022/06/10 03:45:28;;;;;;;7.20;2.87;;;;;;;10.11;100.00;96856.88;5010900;28;20044;-80
2022/06/10 03:47:55;;;;;;;5.70;2.43;;;;;;;10.05;100.00;96857.41;5007509;28;20025;-80
2022/06/10 03:50:26;;;;;;;7.63;2.70;;;;;;;10.12;100.00;96855.88;5025292;28;20022;-80
2022/06/10 03:52:51;;;;;;;7.73;2.77;;;;;;;10.13;100.00;96857.56;5019184;28;20033;-79
2022/06/10 03:55:19;;;;;;;5.70;2.83;;;;;;;10.20;100.00;96859.63;5024991;28;20101;-80
2022/06/10 03:57:46;;;;;;;4.33;2.40;;;;;;;10.22;100.00;96858.50;5003368;28;20042;-80
2022/06/10 04:00:20;;;;;;;7.40;3.13;;;;;;;10.30;100.00;96865.72;5016329;28;20388;-80
2022/06/10 04:02:45;;;;;;;6.50;2.90;;;;;;;10.32;100.00;96871.66;5014727;28;20038;-80
2022/06/10 04:05:11;;;;;;;9.47;3.50;;;;;;;10.36;100.00;96880.91;5016914;28;20061;-80
2022/06/10 04:07:39;;;;;;;6.37;3.27;;;;;;;10.48;100.00;96878.97;5011968;28;20121;-80
2022/06/10 04:10:05;;;;;;;10.47;6.00;;;;;;;10.45;100.00;96885.31;5035852;28;20579;-80
2022/06/10 04:12:31;;;;;;;6.53;3.10;;;;;;;10.49;100.00;96886.69;5009740;28;20037;-80
2022/06/10 04:14:57;;;;;;;7.23;3.77;;;;;;;10.45;100.00;96887.13;5007793;28;20387;-79
2022/06/10 04:17:22;;;;;;;12.57;7.97;;;;;;;10.51;100.00;96891.81;5020250;28;20120;-80
2022/06/10 04:19:48;;;;;;;9.27;5.70;;;;;;;10.63;100.00;96898.59;5019750;28;20060;-80
2022/06/10 04:22:14;;;;;;;6.87;3.50;;;;;;;10.68;100.00;96892.88;5012169;28;20037;-80
2022/06/10 04:24:40;;;;;;;6.83;2.90;;;;;;;10.75;100.00;96894.78;5010191;28;20022;-79
2022/06/10 04:27:05;;;;;;;9.30;3.40;;;;;;;10.75;100.00;96883.44;5011982;28;20600;-79
2022/06/10 04:29:31;;;;;;;7.53;3.20;;;;;;;10.84;100.00;96885.22;5004393;28;20487;-80
2022/06/10 04:31:57;;;;;;;5.73;3.00;;;;;;;10.86;100.00;96883.25;5038703;28;20033;-79
2022/06/10 04:34:23;;;;;;;8.47;3.10;;;;;;;10.93;100.00;96889.63;5028538;28;20029;-79
2022/06/10 04:36:48;;;;;;;7.23;3.10;;;;;;;11.07;100.00;96886.50;5020833;28;20034;-80
2022/06/10 04:39:14;;;;;;;6.67;3.10;;;;;;;11.05;100.00;96887.59;5029886;28;20112;-80
2022/06/10 04:41:40;;;;;;;7.40;3.10;;;;;;;11.23;100.00;96885.00;5018103;28;20100;-80
2022/06/10 04:44:06;;;;;;;8.87;3.20;;;;;;;11.22;100.00;96880.72;5022826;28;20680;-80
2022/06/10 04:46:39;;;;;;;5.30;2.77;;;;;;;11.32;100.00;96882.31;5009607;28;20048;-80
2022/06/10 04:49:06;;;;;;;5.43;3.05;;;;;;;11.51;100.00;96884.00;5023050;28;20042;-80
2022/06/10 04:51:33;;;;;;;5.70;2.70;;;;;;;11.57;100.00;96882.59;5005552;28;20030;-81
2022/06/10 04:54:00;;;;;;;6.67;2.77;;;;;;;11.68;100.00;96887.63;5009095;28;20617;-80
2022/06/10 04:56:26;;;;;;;5.77;2.60;;;;;;;11.83;100.00;96893.19;5011191;28;20072;-80
2022/06/10 04:58:52;;;;;;;6.03;2.90;;;;;;;11.94;100.00;96894.84;5011150;28;20025;-80
2022/06/10 05:01:18;;;;;;;8.00;3.03;;;;;;;12.12;100.00;96890.34;5012460;28;20534;-80
2022/06/10 05:03:43;;;;;;;7.10;2.70;;;;;;;12.22;100.00;96885.00;5010410;28;20025;-80
2022/06/10 05:06:09;;;;;;;7.53;2.90;;;;;;;12.41;100.00;96884.81;5028812;28;20048;-81
2022/06/10 05:08:35;;;;;;;4.87;2.50;;;;;;;12.47;100.00;96896.53;5026557;28;20026;-81
2022/06/10 05:11:01;;;;;;;6.30;2.30;;;;;;;12.53;100.00;96887.19;5016414;28;20175;-80
2022/06/10 05:13:27;;;;;;;6.23;3.00;;;;;;;12.52;100.00;96889.00;5020215;28;20033;-79
2022/06/10 05:15:53;;;;;;;6.47;2.70;;;;;;;12.73;100.00;96885.97;5016880;28;20029;-80
2022/06/10 05:18:21;;;;;;;4.97;2.10;;;;;;;12.88;100.00;96889.72;5034562;28;20042;-80
2022/06/10 05:20:48;;;;;;;6.60;2.30;;;;;;;13.01;100.00;96880.50;5011645;28;20034;-81
2022/06/10 05:23:17;;;;;;;3.87;2.10;;;;;;;13.27;100.00;96886.59;5003093;28;20135;-81
2022/06/10 05:25:43;;;;;;;6.17;3.00;;;;;;;13.29;100.00;96892.53;5010770;28;20049;-81
2022/06/10 05:28:10;;;;;;;6.93;2.13;;;;;;;13.51;100.00;96892.94;5028102;28;20025;-81
2022/06/10 05:30:36;;;;;;;5.30;1.90;;;;;;;13.49;100.00;96890.47;5029794;28;20037;-82
2022/06/10 05:33:04;;;;;;;5.90;2.17;;;;;;;13.89;100.00;96889.72;5032779;28;20040;-80
2022/06/10 05:35:31;;;;;;;8.13;2.13;;;;;;;13.95;100.00;96892.66;5015482;28;20102;-80
2022/06/10 05:37:57;;;;;;;9.13;1.90;;;;;;;14.22;100.00;96897.66;5009210;28;20046;-81
2022/06/10 05:40:25;;;;;;;4.20;1.67;;;;;;;14.35;100.00;96898.00;5002646;28;20052;-81
2022/06/10 05:42:51;;;;;;;4.17;1.80;;;;;;;14.59;100.00;96899.00;5021703;28;20034;-81
2022/06/10 05:45:19;;;;;;;8.57;2.40;;;;;;;14.77;100.00;96899.59;5030208;28;20551;-78
2022/06/10 05:47:47;;;;;;;5.30;1.87;;;;;;;14.85;100.00;96901.38;5011907;28;20064;-81
2022/06/10 05:50:29;;;;;;;4.50;1.80;;;;;;;15.12;100.00;96900.16;5003734;28;20061;-81
2022/06/10 05:52:55;;;;;;;5.77;1.97;;;;;;;15.05;100.00;96896.53;4989777;28;20046;-80
2022/06/10 05:55:21;;;;;;;5.00;2.10;;;;;;;15.20;100.00;96899.31;5013903;28;20025;-81
2022/06/10 05:57:48;;;;;;;5.83;1.83;;;;;;;15.52;100.00;96899.13;5036624;28;20120;-79
2022/06/10 06:00:18;;;;;;;5.40;1.93;;;;;;;15.74;100.00;96897.56;5022857;28;20077;-81
2022/06/10 06:02:47;;;;;;;6.17;1.93;;;;;;;15.71;100.00;96903.22;5027438;28;20096;-80
2022/06/10 06:05:14;;;;;;;6.23;2.03;;;;;;;15.86;100.00;96905.09;5025329;28;20034;-79
2022/06/10 06:07:42;;;;;;;6.80;2.15;;;;;;;15.78;100.00;96906.81;5021100;28;20044;-81
2022/06/10 06:10:10;;;;;;;8.50;2.30;;;;;;;16.43;100.00;96905.53;5006778;28;20100;-81
2022/06/10 06:12:36;;;;;;;5.70;1.90;;;;;;;16.13;100.00;96898.44;5017164;28;20124;-81
2022/06/10 06:15:02;;;;;;;6.82;1.77;;;;;;;16.51;100.00;96899.31;4982839;28;20612;-81
2022/06/10 06:17:28;;;;;;;3.92;1.83;;;;;;;16.85;100.00;96900.66;5019229;28;20048;-81
2022/06/10 06:19:54;;;;;;;6.95;1.80;;;;;;;17.56;98.85;96900.97;5016793;28;20034;-81
2022/06/10 06:22:19;;;;;;;6.72;2.05;;;;;;;17.45;99.40;96899.63;5002475;28;20638;-81
2022/06/10 06:24:45;;;;;;;3.63;1.90;;;;;;;17.35;94.77;96907.06;5008881;28;20231;-82
2022/06/10 06:27:16;;;;;;;5.93;2.10;;;;;;;17.55;98.84;96908.13;4998737;28;20026;-81
2022/06/10 06:29:43;;;;;;;10.93;2.47;;;;;;;18.17;91.57;96911.28;5012799;28;20487;-83
2022/06/10 06:32:10;;;;;;;5.63;1.95;;;;;;;17.69;88.57;96919.75;5010704;28;20527;-82
2022/06/10 06:34:37;;;;;;;6.60;1.60;;;;;;;18.34;85.07;96918.84;4996482;28;20033;-82
2022/06/10 06:37:03;;;;;;;7.78;2.33;;;;;;;18.53;85.78;96913.84;5010767;28;20484;-81
2022/06/10 06:39:28;;;;;;;5.75;1.98;;;;;;;18.41;87.72;96929.53;5022138;28;20034;-81
2022/06/10 06:41:55;;;;;;;6.22;1.60;;;;;;;18.84;83.26;96918.81;5008134;28;20056;-82
2022/06/10 06:44:31;;;;;;;9.30;2.47;;;;;;;18.99;79.56;96921.41;5031063;28;20048;-82
2022/06/10 06:46:56;;;;;;;5.90;2.00;;;;;;;19.13;81.26;96923.13;5030021;28;20102;-82
2022/06/10 06:49:25;;;;;;;7.72;1.73;;;;;;;19.59;79.65;96919.06;5015242;28;20435;-82
2022/06/10 06:51:52;;;;;;;4.88;1.58;;;;;;;19.82;79.72;96924.06;5004241;28;20063;-81
2022/06/10 06:54:19;;;;;;;7.07;1.85;;;;;;;20.25;71.14;96914.75;5026396;28;20108;-83
2022/06/10 06:56:45;;;;;;;8.57;1.90;;;;;;;20.50;70.42;96922.16;5031836;28;20050;-82
2022/06/10 06:59:11;;;;;;;5.28;2.08;;;;;;;20.25;71.06;96919.22;5014789;28;20675;-80
2022/06/10 07:01:37;;;;;;;6.25;1.48;;;;;;;20.83;65.88;96919.50;4995267;28;20030;-80
2022/06/10 07:04:04;;;;;;;5.90;1.77;;;;;;;20.52;67.48;96924.63;5004226;28;20042;-80
2022/06/10 07:06:31;;;;;;;6.97;1.80;;;;;;;20.63;65.21;96924.84;5029895;28;20460;-79
2022/06/10 07:08:57;;;;;;;7.45;1.88;;;;;;;20.61;64.00;96918.06;5018529;28;20021;-80
2022/06/10 07:11:23;;;;;;;8.35;1.80;;;;;;;20.75;62.08;96933.06;4999471;28;20052;-79
2022/06/10 07:13:49;;;;;;;6.47;1.83;;;;;;;21.76;57.73;96921.94;4997433;28;20026;-80
2022/06/10 07:16:14;;;;;;;3.30;1.40;;;;;;;21.65;58.00;96927.97;5006522;28;20100;-80
2022/06/10 07:18:40;;;;;;;5.55;1.85;;;;;;;22.09;58.56;96926.31;5022858;28;20041;-80
2022/06/10 07:21:06;;;;;;;6.38;1.67;;;;;;;22.75;56.70;96923.19;5018512;28;20463;-80
2022/06/10 07:23:32;;;;;;;4.25;1.70;;;;;;;22.51;55.73;96930.19;5019439;28;20026;-79
2022/06/10 07:25:59;;;;;;;6.90;2.15;;;;;;;22.62;56.45;96922.47;5004220;28;20045;-81
2022/06/10 07:28:25;;;;;;;4.85;1.70;;;;;;;22.07;57.26;96928.41;5008638;28;20033;-80
2022/06/10 07:30:51;;;;;;;6.55;2.20;;;;;;;22.94;54.41;96921.41;5018326;28;20057;-80
2022/06/10 07:33:17;;;;;;;5.68;1.77;;;;;;;23.39;50.34;96914.97;5037214;28;20041;-81
2022/06/10 07:35:43;;;;;;;5.85;2.00;;;;;;;21.99;55.36;96924.09;5039906;28;20075;-79
2022/06/10 07:38:10;;;;;;;5.20;1.90;;;;;;;22.59;55.03;96929.91;5024414;28;20647;-80
2022/06/10 07:43:28;;;;;;;5.20;2.00;;;;;;;22.54;56.89;96921.72;5019195;28;20065;-81
2022/06/10 07:45:54;;;;;;;5.72;1.70;;;;;;;21.86;56.69;96925.00;5003353;28;20080;-81
2022/06/10 07:48:21;;;;;;;6.28;1.88;;;;;;;22.18;55.03;96917.00;5028987;28;20453;-82
2022/06/10 07:50:48;;;;;;;5.82;1.90;;;;;;;22.57;53.24;96915.91;5012654;28;20042;-81
2022/06/10 07:53:14;;;;;;;6.30;1.85;;;;;;;22.71;54.70;96918.50;5012686;28;20045;-80
2022/06/10 07:55:42;;;;;;;5.05;1.77;;;;;;;23.30;51.92;96919.78;5011591;28;20032;-81
2022/06/10 07:58:08;;;;;;;5.88;1.65;;;;;;;23.35;52.50;96924.50;5024109;28;20048;-81
2022/06/10 08:00:34;;;;;;;5.40;1.80;;;;;;;23.69;50.34;96915.88;5014938;28;20089;-82
2022/06/10 08:03:01;;;;;;;4.28;1.45;;;;;;;24.27;47.82;96910.94;5028253;28;20040;-82
2022/06/10 08:05:27;;;;;;;6.47;1.85;;;;;;;25.02;47.36;96918.47;5030862;28;20022;-82
2022/06/10 08:07:53;;;;;;;6.40;2.10;;;;;;;25.03;46.32;96910.16;5024317;28;20476;-82
2022/06/10 08:10:27;;;;;;;4.90;2.03;;;;;;;25.39;44.76;96909.09;5024278;28;20117;-82
2022/06/10 08:12:52;;;;;;;4.97;1.73;;;;;;;26.18;43.09;96903.13;5021308;28;20066;-82
2022/06/10 08:15:20;;;;;;;5.85;1.80;;;;;;;25.76;44.77;96913.34;5024672;28;20052;-82
2022/06/10 08:17:47;;;;;;;11.30;2.05;;;;;;;25.66;45.40;96911.25;5013194;28;20455;-81
2022/06/10 08:22:32;;;;;;;6.28;1.73;;;;;;;25.92;43.76;96909.09;4990173;28;20028;-81
2022/06/10 08:23:12;;;;;;;6.93;2.17;;;;;;;25.17;46.68;96911.56;4999959;28;20050;-82
2022/06/10 08:25:37;;;;;;;8.48;2.25;;;;;;;25.49;45.99;96907.69;5007846;28;20046;-82
2022/06/10 08:28:03;;;;;;;4.68;1.60;;;;;;;26.24;42.00;96914.81;5016942;28;20077;-82
2022/06/10 08:30:29;;;;;;;5.43;1.67;;;;;;;25.35;45.77;96910.63;5003654;28;20101;-82
2022/06/10 08:32:55;;;;;;;3.72;1.63;;;;;;;24.30;46.38;96919.38;5028163;28;20096;-82
2022/06/10 08:35:21;;;;;;;5.85;1.85;;;;;;;25.53;43.24;96915.03;5010471;28;20486;-80
2022/06/10 08:37:46;;;;;;;5.70;1.65;;;;;;;24.99;42.73;96911.69;5022385;28;20121;-82
2022/06/10 08:40:26;;;;;;;5.38;1.70;;;;;;;25.58;42.99;96915.13;5007527;28;20092;-82
2022/06/10 08:42:52;;;;;;;4.70;1.80;;;;;;;25.37;44.67;96908.50;5011891;28;20044;-81
2022/06/10 08:45:32;;;;;;;6.15;1.60;;;;;;;26.33;42.01;96902.59;5007848;28;20080;-82
2022/06/10 08:47:58;;;;;;;6.82;1.85;;;;;;;25.83;42.44;96901.41;5021924;28;20037;-81
2022/06/10 08:51:05;;;;;;;6.40;1.90;;;;;;;26.88;40.42;96909.97;5022154;28;20041;-82
2022/06/10 08:54:02;;;;;;;6.40;1.73;;;;;;;25.86;43.91;96902.81;4977503;28;20715;-82
2022/06/10 08:56:33;;;;;;;5.40;1.52;;;;;;;25.99;41.75;96905.22;5022799;28;20037;-81
2022/06/10 08:59:13;;;;;;;3.22;1.13;;;;;;;25.33;43.99;96906.53;5030501;28;20037;-81
2022/06/10 09:02:11;;;;;;;7.03;1.90;;;;;;;24.25;44.95;96911.19;5007902;28;20039;-81
2022/06/10 09:04:52;;;;;;;5.75;2.10;;;;;;;24.19;44.98;96912.09;5008025;28;20049;-82
2022/06/10 09:07:40;;;;;;;5.65;1.70;;;;;;;22.91;49.17;96910.28;5037596;28;20041;-81
2022/06/10 09:10:15;;;;;;;5.40;1.35;;;;;;;23.12;47.77;96912.56;5003766;28;20049;-81
2022/06/10 09:13:16;;;;;;;5.40;1.60;;;;;;;22.26;50.92;96923.97;5020787;28;20091;-82
2022/06/10 09:15:54;;;;;;;5.13;1.70;;;;;;;21.59;52.43;96921.59;4977746;28;20056;-80
2022/06/10 09:18:33;;;;;;;4.13;1.58;;;;;;;21.72;51.81;96926.06;5000927;28;20029;-82
2022/06/10 09:21:27;;;;;;;4.50;1.70;;;;;;;21.55;53.07;96923.06;5015841;28;20093;-82
2022/06/10 09:23:58;;;;;;;7.78;1.90;;;;;;;23.25;47.67;96917.78;4988660;28;20038;-82
2022/06/10 09:26:39;;;;;;;6.55;1.92;;;;;;;23.87;46.15;96917.69;5014700;28;20099;-80
2022/06/10 09:29:05;;;;;;;4.95;1.30;;;;;;;22.95;49.17;96919.53;5023229;28;20097;-82
2022/06/10 09:31:40;;;;;;;6.55;1.85;;;;;;;21.69;49.34;96923.81;5022438;28;20068;-83
2022/06/10 09:34:16;;;;;;;5.32;1.65;;;;;;;22.96;48.42;96915.81;5023817;28;20034;-82
2022/06/10 09:37:12;;;;;;;4.72;1.73;;;;;;;25.16;42.49;96906.44;5014344;28;20052;-83
2022/06/10 09:43:26;;;;;;;6.05;1.63;;;;;;;22.98;45.05;96919.09;4958874;28;20031;-82
2022/06/10 09:46:26;;;;;;;6.20;1.90;;;;;;;25.14;44.04;96914.72;4978186;28;20049;-82
2022/06/10 09:48:58;;;;;;;4.32;1.35;;;;;;;24.81;44.59;96912.59;5010489;28;20045;-82
2022/06/10 09:51:51;;;;;;;5.88;1.88;;;;;;;23.68;45.03;96916.91;5024731;28;20057;-81
2022/06/10 09:54:59;;;;;;;4.22;1.17;;;;;;;23.71;46.11;96911.09;5018706;28;20034;-81
2022/06/10 09:57:48;;;;;;;6.60;1.75;;;;;;;23.52;45.82;96907.56;4946040;29;20046;-82
2022/06/10 10:00:31;;;;;;;7.30;1.65;;;;;;;23.09;47.85;96918.38;4958613;28;20080;-83
2022/06/10 10:03:22;;;;;;;5.53;1.20;;;;;;;23.37;46.77;96908.97;4995472;28;20049;-83
2022/06/10 10:06:06;;;;;;;5.25;1.52;;;;;;;23.27;46.73;96910.34;5013950;28;20042;-82
2022/06/10 10:09:04;;;;;;;5.43;1.42;;;;;;;22.92;47.30;96914.59;5014444;28;20096;-82
2022/06/10 10:12:12;;;;;;;5.15;1.30;;;;;;;22.74;47.85;96901.97;4997246;28;20117;-81
2022/06/10 10:14:46;;;;;;;8.73;1.92;;;;;;;22.60;47.68;96906.59;5013913;28;20030;-81
2022/06/10 10:17:30;;;;;;;5.03;1.30;;;;;;;23.88;44.65;96897.88;5014935;28;20390;-83
2022/06/10 10:20:08;;;;;;;8.43;1.90;;;;;;;25.63;41.32;96888.31;5017852;28;20034;-82
2022/06/10 10:22:37;;;;;;;4.05;1.05;;;;;;;26.70;40.29;96894.06;5030061;28;20037;-82
2022/06/10 10:25:04;;;;;;;6.13;1.83;;;;;;;26.99;39.73;96892.03;5025092;28;20034;-82
2022/06/10 10:27:33;;;;;;;8.68;2.10;;;;;;;27.31;36.49;96894.97;5029531;28;20033;-80
2022/06/10 10:30:23;;;;;;;4.57;1.40;;;;;;;27.94;34.63;96884.69;5017823;28;20734;-81
2022/06/10 10:33:00;;;;;;;4.05;1.15;;;;;;;27.04;36.55;96890.25;5035708;28;20395;-81
2022/06/10 10:35:33;;;;;;;4.22;1.40;;;;;;;26.53;36.59;96894.06;5023971;28;20116;-82
2022/06/10 10:38:03;;;;;;;3.05;1.33;;;;;;;27.38;35.51;96892.91;5003385;28;20487;-80
2022/06/10 10:40:42;;;;;;;5.43;1.50;;;;;;;26.83;37.22;96890.19;4997515;28;20039;-82
2022/06/10 10:43:11;;;;;;;4.03;1.42;;;;;;;27.23;36.10;96885.41;5031664;28;20096;-82
2022/06/10 10:45:51;;;;;;;5.55;1.60;;;;;;;27.91;36.12;96883.28;5037035;28;20549;-82
2022/06/10 10:48:22;;;;;;;6.13;1.40;;;;;;;27.45;36.21;96890.81;5026021;28;20372;-81
2022/06/10 10:50:59;;;;;;;4.93;1.45;;;;;;;28.23;34.40;96881.72;5008732;28;20454;-82
2022/06/10 10:53:33;;;;;;;4.78;1.33;;;;;;;28.43;36.39;96885.44;5011052;28;20037;-82
2022/06/10 10:56:01;;;;;;;3.40;1.17;;;;;;;28.66;35.43;96878.88;5025836;28;20037;-83
2022/06/10 10:58:31;;;;;;;5.97;1.60;;;;;;;28.49;34.53;96880.09;5018686;28;20626;-80
2022/06/10 11:01:43;;;;;;;5.72;1.58;;;;;;;28.50;32.75;96884.41;5013324;28;20041;-83
2022/06/10 11:03:56;;;;;;;5.65;1.55;;;;;;;27.60;33.84;96887.50;5014745;28;20034;-82
2022/06/10 11:06:32;;;;;;;4.75;1.20;;;;;;;27.94;33.90;96877.38;5027562;28;20083;-83
2022/06/10 11:08:58;;;;;;;7.68;1.60;;;;;;;28.88;33.12;96878.78;5020942;28;20042;-81
2022/06/10 11:11:43;;;;;;;5.05;1.58;;;;;;;27.06;36.89;96881.06;5015723;28;20088;-81
2022/06/10 11:14:37;;;;;;;5.40;1.50;;;;;;;26.84;35.75;96889.13;5023920;28;20464;-82
2022/06/10 11:17:15;;;;;;;5.63;1.40;;;;;;;27.54;35.13;96882.28;5005843;28;20077;-82
2022/06/10 11:19:43;;;;;;;5.65;1.50;;;;;;;27.80;33.27;96878.84;5016570;28;20124;-82
2022/06/10 11:22:38;;;;;;;4.78;1.55;;;;;;;27.57;34.68;96879.91;5032234;28;20057;-83
2022/06/10 11:25:03;;;;;;;4.90;1.20;;;;;;;28.70;32.03;96873.75;5031209;28;20037;-81
2022/06/10 11:27:31;;;;;;;3.80;1.13;;;;;;;29.54;32.71;96870.22;5002695;28;20061;-82
2022/06/10 11:30:03;;;;;;;3.47;1.52;;;;;;;28.39;32.87;96878.91;5032703;28;20029;-83
2022/06/10 11:32:43;;;;;;;7.63;1.60;;;;;;;28.61;33.67;96880.75;5020894;28;20029;-81
2022/06/10 11:35:28;;;;;;;3.83;1.20;;;;;;;29.11;33.65;96869.47;5011875;28;20029;-82
2022/06/10 11:37:59;;;;;;;4.40;1.33;;;;;;;29.72;31.41;96868.16;5031289;28;20032;-81
2022/06/10 11:40:28;;;;;;;5.68;1.90;;;;;;;29.21;33.26;96870.59;4997789;28;20049;-82
2022/06/10 11:43:01;;;;;;;4.82;1.58;;;;;;;29.79;32.56;96871.41;5030255;28;20077;-81
2022/06/10 11:45:37;;;;;;;5.32;1.58;;;;;;;29.55;32.33;96871.84;5012213;28;20601;-81
2022/06/10 11:48:32;;;;;;;3.58;1.40;;;;;;;28.96;35.15;96869.34;5024367;28;20027;-81
2022/06/10 11:51:15;;;;;;;4.32;1.48;;;;;;;30.10;32.45;96863.34;5014970;28;20037;-81
2022/06/10 11:53:56;;;;;;;4.07;1.48;;;;;;;30.14;31.46;96867.97;5039124;28;20025;-81
2022/06/10 11:59:58;;;;;;;5.55;1.70;;;;;;;31.60;30.61;96853.72;5009989;28;20484;-80
2022/06/10 12:02:44;;;;;;;2.95;1.15;;;;;;;31.42;30.46;96855.16;5020596;28;20041;-80
2022/06/10 12:05:22;;;;;;;6.30;2.10;;;;;;;31.10;30.11;96854.69;5009313;28;20064;-79
2022/06/10 12:08:26;;;;;;;9.65;6.13;;;;;;;32.40;29.05;96844.56;5016763;28;20033;-80
2022/06/10 12:10:56;;;;;;;5.95;2.15;;;;;;;30.68;31.60;96853.91;5020775;28;20048;-81